Terminal Aerodrome Forecast
Issued by NWS Upton, NY

Home | Current Version | Previous Version | Text Only | Print | Product List | Glossary On
Versions: 1 2 3 4 5 6 7 8 9 10 11 12 13 14 15 16 17 18 19 20 21 22 23 24 25 26 27 28 29 30 31 32 33 34
256
FTUS41 KOKX 290904 AAA
TAFLGA
TAF AMD
KLGA 290904Z 2909/3006 04010KT 3SM SHRA FEW006 BKN015
      TEMPO 2909/2910 1SM +SHRA BKN009
     FM291000 03010KT 4SM -SHRA OVC015
      TEMPO 2911/2914 2SM SHRA
     FM291400 05010G17KT 5SM -SHRA BKN025
     FM291700 06010G17KT P6SM BKN150
     FM300100 13006KT P6SM BKN250
     FM300200 16006KT P6SM BKN250
     FM300500 22004KT P6SM SCT240=

USA.gov is the U.S. government's official web portal to all federal, state and local government web resources and services.